.
WxDataArchive / Data Records for 2010-12-16
2010-12-15 December 2010 2010-12-17

Data Records for Thursday, 16 December 2010

Time	Temp	Chill	HIndex	Humid	Dewpt	 Wind 	HiWind	WindDir	Rain 	Barom 
-----	----	-----	------	-----	-----	------	------	-------	-----	----- 
00:00	10.2	10.2	10.2	86	6.9	0	0	---	0.00	29.962 
00:05	10.2	10.2	10.2	86	6.9	0	0	---	0.00	29.962 
00:10	10.4	10.4	10.4	86	7.1	0	0	---	0.00	29.962 
00:15	10.5	10.5	10.5	86	7.2	0	0	---	0.00	29.958 
00:20	10.5	10.5	10.5	86	7.2	0	1	315	0.00	29.958 
00:25	10.7	10.7	10.7	86	7.4	0	1	315	0.00	29.958 
00:30	11.1	11.1	11.1	86	7.7	0	0	---	0.00	29.953 
00:35	11.2	11.2	11.2	86	7.8	0	0	---	0.00	29.953 
00:40	11.4	11.4	11.4	86	8.0	0	0	---	0.00	29.953 
00:45	11.6	11.6	11.6	86	8.2	0	1	315	0.00	29.942 
00:50	11.7	11.7	11.7	86	8.3	0	1	315	0.00	29.942 
00:55	11.7	11.7	11.7	86	8.3	0	1	315	0.00	29.942 
01:00	11.9	11.9	11.9	86	8.5	0	1	0	0.00	29.940 
01:05	12.1	12.1	12.1	86	8.7	0	1	0	0.00	29.940 
01:10	12.1	12.1	12.1	85	8.5	0	2	0	0.00	29.940 
01:15	12.1	12.1	12.1	85	8.5	0	2	45	0.00	29.941 
01:20	12.1	12.1	12.1	85	8.5	0	1	45	0.00	29.941 
01:25	12.1	12.1	12.1	85	8.5	0	1	45	0.00	29.941 
01:30	12.3	12.3	12.3	85	8.7	0	2	45	0.00	29.932 
01:35	12.3	12.3	12.3	85	8.7	1	3	45	0.00	29.932 
01:40	12.3	12.3	12.3	85	8.7	1	2	45	0.00	29.932 
01:45	12.1	12.1	12.1	85	8.5	1	3	112	0.00	29.913 
01:50	12.3	12.3	12.3	85	8.7	0	3	90	0.00	29.913 
01:55	12.3	12.3	12.3	85	8.7	0	3	90	0.00	29.913 
02:00	12.4	12.4	12.4	85	8.8	0	1	90	0.00	29.910 
02:05	12.4	12.4	12.4	85	8.8	0	1	90	0.00	29.910 
02:10	12.6	12.6	12.6	85	9.0	0	1	90	0.00	29.910 
02:15	12.6	12.6	12.6	85	9.0	0	1	90	0.00	29.908 
02:20	12.8	12.8	12.8	85	9.2	0	1	90	0.00	29.908 
02:25	12.8	12.8	12.8	85	9.2	0	1	90	0.00	29.908 
02:30	12.8	12.8	12.8	85	9.2	0	2	90	0.00	29.900 
02:35	12.8	12.8	12.8	84	8.9	1	3	90	0.00	29.900 
02:40	12.8	12.8	12.8	84	8.9	0	1	90	0.00	29.900 
02:45	12.9	12.9	12.9	85	9.3	0	1	90	0.00	29.905 
02:50	12.9	12.9	12.9	85	9.3	0	1	90	0.00	29.905 
02:55	13.1	13.1	13.1	84	9.2	1	4	90	0.00	29.905 
03:00	13.1	13.1	13.1	84	9.2	1	2	90	0.00	29.896 
03:05	13.3	13.3	13.3	84	9.4	1	3	90	0.00	29.896 
03:10	13.3	13.3	13.3	84	9.4	1	4	90	0.00	29.896 
03:15	13.3	13.3	13.3	84	9.4	1	3	90	0.00	29.892 
03:20	13.3	13.3	13.3	84	9.4	1	3	90	0.00	29.892 
03:25	13.3	13.3	13.3	84	9.4	0	2	90	0.00	29.892 
03:30	13.3	13.3	13.3	84	9.4	0	2	90	0.00	29.886 
03:35	13.3	13.3	13.3	84	9.4	1	3	90	0.00	29.886 
03:40	13.5	13.5	13.5	84	9.6	1	2	90	0.00	29.886 
03:45	13.5	13.5	13.5	84	9.6	1	2	90	0.00	29.878 
03:50	13.5	13.5	13.5	84	9.6	0	2	90	0.00	29.878 
03:55	13.6	13.6	13.6	84	9.7	0	2	90	0.00	29.878 
04:00	13.6	13.6	13.6	84	9.7	0	2	90	0.00	29.878 
04:05	13.8	13.8	13.8	84	9.9	0	1	90	0.00	29.878 
04:10	13.8	13.8	13.8	84	9.9	0	1	90	0.00	29.878 
04:15	14.0	14.0	14.0	84	10.1	0	2	90	0.00	29.882 
04:20	14.0	14.0	14.0	84	10.1	0	1	90	0.00	29.882 
04:25	14.1	14.1	14.1	84	10.2	0	1	90	0.00	29.882 
04:30	14.3	14.3	14.3	84	10.4	0	1	90	0.00	29.878 
04:35	14.3	14.3	14.3	84	10.4	0	2	90	0.00	29.878 
04:40	14.4	14.4	14.4	84	10.5	0	3	90	0.00	29.878 
04:45	14.4	14.4	14.4	84	10.5	0	2	90	0.00	29.869 
04:50	14.6	14.6	14.6	83	10.4	0	1	90	0.00	29.869 
04:55	14.6	14.6	14.6	83	10.4	0	1	90	0.00	29.869 
05:00	14.8	14.8	14.8	83	10.6	1	3	90	0.00	29.862 
05:05	14.8	14.8	14.8	83	10.6	0	2	90	0.00	29.862 
05:10	14.9	14.9	14.9	83	10.7	0	2	90	0.00	29.862 
05:15	14.9	14.9	14.9	83	10.7	0	2	90	0.00	29.867 
05:20	14.9	14.9	14.9	83	10.7	0	2	90	0.00	29.867 
05:25	15.1	15.1	15.1	83	10.9	0	2	90	0.00	29.867 
05:30	15.1	15.1	15.1	83	10.9	1	2	90	0.00	29.865 
05:35	15.1	15.1	15.1	82	10.6	0	2	90	0.00	29.865 
05:40	15.2	15.2	15.2	83	11.0	0	1	90	0.00	29.865 
05:45	15.2	15.2	15.2	83	11.0	0	1	90	0.00	29.858 
05:50	15.2	15.2	15.2	83	11.0	0	1	90	0.00	29.858 
05:55	15.2	15.2	15.2	83	11.0	0	1	90	0.00	29.858 
06:00	15.2	15.2	15.2	83	11.0	0	3	90	0.00	29.852 
06:05	15.2	15.2	15.2	82	10.7	0	2	90	0.00	29.852 
06:10	15.2	15.2	15.2	82	10.7	1	2	90	0.00	29.852 
06:15	15.4	15.4	15.4	82	10.9	0	2	90	0.00	29.838 
06:20	15.4	15.4	15.4	82	10.9	0	1	90	0.00	29.838 
06:25	15.4	15.4	15.4	82	10.9	0	4	90	0.00	29.838 
06:30	15.4	15.4	15.4	82	10.9	0	2	90	0.00	29.833 
06:35	15.4	15.4	15.4	82	10.9	0	3	90	0.00	29.833 
06:40	15.4	15.4	15.4	81	10.6	0	1	90	0.00	29.833 
06:45	15.6	15.6	15.6	81	10.8	0	2	90	0.00	29.836 
06:50	15.6	15.6	15.6	81	10.8	0	2	90	0.00	29.836 
06:55	15.6	15.6	15.6	81	10.8	0	2	90	0.00	29.836 
07:00	15.7	15.7	15.7	81	10.9	0	3	90	0.00	29.832 
07:05	15.9	15.9	15.9	81	11.1	0	5	90	0.00	29.832 
07:10	15.9	15.9	15.9	80	10.8	0	2	90	0.00	29.832 
07:15	16.1	16.1	16.1	80	11.0	0	2	68	0.00	29.828 
07:20	16.1	16.1	16.1	80	11.0	1	4	90	0.00	29.828 
07:25	16.2	16.2	16.2	79	10.9	0	3	90	0.00	29.828 
07:30	16.2	16.2	16.2	79	10.9	0	2	90	0.00	29.835 
07:35	16.2	16.2	16.2	79	10.9	0	2	90	0.00	29.835 
07:40	16.2	16.2	16.2	79	10.9	1	5	90	0.00	29.835 
07:45	16.2	16.2	16.2	78	10.6	1	3	90	0.00	29.831 
07:50	16.2	16.2	16.2	78	10.6	1	3	90	0.00	29.831 
07:55	16.4	16.4	16.4	78	10.8	0	3	90	0.00	29.831 
08:00	16.4	16.4	16.4	78	10.8	0	2	90	0.00	29.836 
08:05	16.4	16.4	16.4	78	10.8	0	3	90	0.00	29.836 
08:10	16.4	16.4	16.4	78	10.8	1	4	90	0.00	29.836 
08:15	16.5	16.5	16.5	78	10.9	0	2	90	0.00	29.839 
08:20	16.5	16.5	16.5	77	10.6	1	3	90	0.00	29.839 
08:25	16.5	16.5	16.5	77	10.6	1	3	90	0.00	29.839 
08:30	16.7	16.7	16.7	77	10.8	1	3	90	0.00	29.838 
08:35	16.7	16.7	16.7	77	10.8	1	3	90	0.00	29.838 
08:40	16.9	16.9	16.9	77	11.0	1	3	90	0.00	29.838 
08:45	16.9	16.9	16.9	77	11.0	1	3	90	0.00	29.831 
08:50	16.9	16.9	16.9	76	10.7	1	3	90	0.00	29.831 
08:55	16.9	16.9	16.9	76	10.7	2	4	90	0.00	29.831 
09:00	17.0	17.0	17.0	77	11.1	1	4	90	0.00	29.833 
09:05	17.2	17.2	17.2	76	11.0	0	5	112	0.00	29.833 
09:10	17.2	17.2	17.2	75	10.7	2	5	112	0.00	29.833 
09:15	17.2	17.2	17.2	75	10.7	3	5	90	0.00	29.838 
09:20	17.2	17.2	17.2	75	10.7	1	4	90	0.00	29.838 
09:25	17.3	17.3	17.3	76	11.1	0	4	90	0.00	29.838 
09:30	17.5	17.5	17.5	75	11.0	2	6	90	0.00	29.836 
09:35	17.7	17.7	17.7	75	11.1	1	4	90	0.00	29.836 
09:40	17.8	17.8	17.8	74	10.9	2	6	90	0.00	29.836 
09:45	18.0	18.0	18.0	74	11.1	1	3	112	0.00	29.834 
09:50	18.0	18.0	18.0	73	10.8	2	5	112	0.00	29.834 
09:55	18.0	18.0	18.0	74	11.1	1	3	112	0.00	29.834 
10:00	18.3	18.3	18.3	73	11.1	2	4	112	0.00	29.831 
10:05	18.6	18.6	18.6	74	11.7	0	3	112	0.00	29.831 
10:10	18.9	18.9	18.9	73	11.7	1	4	112	0.00	29.831 
10:15	19.1	19.1	19.1	72	11.6	1	5	112	0.00	29.838 
10:20	19.2	19.2	19.2	72	11.7	1	5	112	0.00	29.838 
10:25	19.1	19.1	19.1	71	11.3	2	4	90	0.00	29.838 
10:30	19.2	19.2	19.2	71	11.4	1	3	90	0.00	29.837 
10:35	19.2	19.2	19.2	71	11.4	2	5	90	0.00	29.837 
10:40	19.4	19.4	19.4	71	11.6	1	4	90	0.00	29.837 
10:45	19.4	19.4	19.4	70	11.2	1	3	90	0.00	29.847 
10:50	19.7	19.7	19.7	71	11.8	1	3	90	0.00	29.847 
10:55	19.9	19.9	19.9	69	11.4	1	4	90	0.00	29.847 
11:00	19.7	19.7	19.7	69	11.2	1	4	90	0.00	29.849 
11:05	20.0	20.0	20.0	69	11.5	1	2	90	0.00	29.849 
11:10	20.2	20.2	20.2	69	11.7	0	3	90	0.00	29.849 
11:15	20.3	20.3	20.3	68	11.5	2	4	90	0.00	29.842 
11:20	20.5	20.5	20.5	69	12.0	1	4	90	0.00	29.842 
11:25	20.5	20.5	20.5	68	11.6	2	7	90	0.00	29.842 
11:30	20.6	20.6	20.6	69	12.1	1	3	112	0.00	29.828 
11:35	20.6	20.6	20.6	68	11.7	2	5	112	0.00	29.828 
11:40	20.6	20.6	20.6	69	12.1	1	6	90	0.00	29.828 
11:45	20.5	20.5	20.5	69	12.0	3	6	90	0.00	29.828 
11:50	20.3	20.3	20.3	68	11.5	3	6	90	0.00	29.828 
11:55	20.5	20.5	20.5	69	12.0	1	4	90	0.00	29.828 
12:00	20.6	20.6	20.6	69	12.1	1	4	90	0.00	29.831 
12:05	21.0	21.0	21.0	68	12.1	0	2	90	0.00	29.831 
12:10	21.1	21.1	21.1	66	11.5	1	4	90	0.00	29.831 
12:15	21.3	21.3	21.3	65	11.4	1	4	90	0.00	29.830 
12:20	21.6	21.6	21.6	64	11.3	0	2	90	0.00	29.830 
12:25	21.9	21.9	21.9	63	11.3	0	2	90	0.00	29.830 
12:30	22.2	22.2	22.2	62	11.2	0	3	90	0.00	29.822 
12:35	22.4	22.4	22.4	61	11.0	0	1	90	0.00	29.822 
12:40	22.4	22.4	22.4	60	10.6	1	4	90	0.00	29.822 
12:45	22.2	22.2	22.2	61	10.8	1	4	90	0.00	29.816 
12:50	22.2	22.2	22.2	61	10.8	2	5	90	0.00	29.816 
12:55	22.1	22.1	22.1	62	11.1	1	3	90	0.00	29.816 
13:00	22.1	22.1	22.1	61	10.7	2	4	90	0.00	29.815 
13:05	22.1	22.1	22.1	63	11.5	1	3	90	0.00	29.815 
13:10	22.2	22.2	22.2	62	11.2	0	3	90	0.00	29.815 
13:15	22.2	22.2	22.2	63	11.6	2	4	90	0.00	29.814 
13:20	22.2	22.2	22.2	62	11.2	2	5	90	0.00	29.814 
13:25	22.4	22.4	22.4	61	11.0	1	3	90	0.00	29.814 
13:30	22.5	22.5	22.5	61	11.1	2	4	90	0.00	29.805 
13:35	22.5	22.5	22.5	61	11.1	1	3	90	0.00	29.805 
13:40	22.5	22.5	22.5	61	11.1	1	3	90	0.00	29.805 
13:45	22.5	22.5	22.5	60	10.7	1	3	90	0.00	29.810 
13:50	22.9	22.9	22.9	62	11.9	1	3	90	0.00	29.810 
13:55	23.0	23.0	23.0	62	11.9	1	3	90	0.00	29.810 
14:00	23.0	23.0	23.0	62	11.9	1	3	90	0.00	29.800 
14:05	23.0	23.0	23.0	62	11.9	1	3	90	0.00	29.800 
14:10	23.0	23.0	23.0	62	11.9	0	2	90	0.00	29.800 
14:15	23.2	23.2	23.2	62	12.1	0	2	90	0.00	29.796 
14:20	23.5	23.5	23.5	62	12.4	0	2	90	0.00	29.796 
14:25	23.6	23.6	23.6	62	12.5	0	2	90	0.00	29.796 
14:30	23.6	23.6	23.6	61	12.2	0	0	---	0.00	29.812 
14:35	23.9	23.9	23.9	61	12.4	0	0	---	0.00	29.812 
14:40	23.9	23.9	23.9	60	12.1	0	1	90	0.00	29.812 
14:45	23.9	23.9	23.9	60	12.1	0	1	90	0.00	29.821 
14:50	23.9	23.9	23.9	61	12.4	0	1	90	0.00	29.821 
14:55	23.9	23.9	23.9	60	12.1	0	1	90	0.00	29.821 
15:00	23.9	23.9	23.9	60	12.1	0	0	---	0.00	29.828 
15:05	23.9	23.9	23.9	60	12.1	0	1	90	0.00	29.828 
15:10	23.8	23.8	23.8	60	12.0	1	3	90	0.00	29.828 
15:15	23.6	23.6	23.6	62	12.5	1	4	90	0.00	29.813 
15:20	23.5	23.5	23.5	61	12.1	0	0	---	0.00	29.813 
15:25	23.6	23.6	23.6	61	12.2	0	0	---	0.00	29.813 
15:30	23.8	23.8	23.8	61	12.3	0	1	90	0.00	29.831 
15:35	23.8	23.8	23.8	61	12.3	0	0	---	0.00	29.831 
15:40	23.9	23.9	23.9	62	12.8	0	0	---	0.00	29.831 
15:45	23.9	23.9	23.9	62	12.8	0	2	90	0.00	29.841 
15:50	23.9	23.9	23.9	62	12.8	0	1	90	0.00	29.841 
15:55	23.9	23.9	23.9	62	12.8	0	1	90	0.00	29.841 
16:00	24.1	24.1	24.1	62	13.0	0	1	90	0.00	29.840 
16:05	24.1	24.1	24.1	62	13.0	0	1	90	0.00	29.840 
16:10	24.1	24.1	24.1	62	13.0	0	0	---	0.00	29.840 
16:15	24.1	24.1	24.1	62	13.0	0	1	90	0.00	29.847 
16:20	24.2	24.2	24.2	62	13.1	0	1	90	0.00	29.847 
16:25	24.2	24.2	24.2	62	13.1	0	2	90	0.00	29.847 
16:30	24.4	24.4	24.4	62	13.3	0	1	90	0.00	29.854 
16:35	24.4	24.4	24.4	62	13.3	0	1	90	0.00	29.854 
16:40	24.4	24.4	24.4	62	13.3	0	2	90	0.00	29.854 
16:45	24.4	24.4	24.4	62	13.3	0	1	90	0.00	29.854 
16:50	24.4	24.4	24.4	63	13.6	0	2	90	0.00	29.854 
16:55	24.4	24.4	24.4	63	13.6	0	1	0	0.00	29.854 
17:00	24.4	24.4	24.4	64	14.0	0	1	0	0.00	29.857 
17:05	24.4	24.4	24.4	64	14.0	0	1	0	0.00	29.857 
17:10	24.2	24.2	24.2	64	13.8	0	1	0	0.00	29.857 
17:15	24.1	24.1	24.1	64	13.7	0	0	---	0.00	29.857 
17:20	24.1	24.1	24.1	65	14.1	0	0	---	0.00	29.857 
17:25	24.1	24.1	24.1	65	14.1	0	0	---	0.00	29.857 
17:30	24.1	24.1	24.1	65	14.1	0	1	0	0.00	29.870 
17:35	23.9	23.9	23.9	65	13.9	0	1	0	0.00	29.870 
17:40	23.9	23.9	23.9	65	13.9	0	0	---	0.00	29.870 
17:45	23.9	23.9	23.9	65	13.9	0	0	---	0.00	29.877 
17:50	23.9	23.9	23.9	66	14.2	0	1	0	0.00	29.877 
17:55	24.1	24.1	24.1	66	14.4	0	1	0	0.00	29.877 
18:00	24.1	24.1	24.1	66	14.4	0	1	0	0.00	29.882 
18:05	24.1	24.1	24.1	66	14.4	0	0	---	0.00	29.882 
18:10	24.1	24.1	24.1	67	14.8	0	0	---	0.00	29.882 
18:15	24.1	24.1	24.1	67	14.8	0	0	---	0.00	29.888 
18:20	24.1	24.1	24.1	67	14.8	0	0	---	0.00	29.888 
18:25	24.1	24.1	24.1	67	14.8	0	1	0	0.00	29.888 
18:30	24.1	24.1	24.1	68	15.1	0	0	---	0.00	29.894 
18:35	24.1	24.1	24.1	67	14.8	0	0	---	0.00	29.894 
18:40	24.1	24.1	24.1	68	15.1	0	0	---	0.00	29.894 
18:45	24.1	24.1	24.1	68	15.1	0	1	0	0.00	29.901 
18:50	24.1	24.1	24.1	67	14.8	0	2	0	0.00	29.901 
18:55	24.1	24.1	24.1	68	15.1	0	1	0	0.00	29.901 
19:00	24.1	24.1	24.1	68	15.1	0	1	0	0.00	29.902 
19:05	24.1	24.1	24.1	68	15.1	0	0	---	0.00	29.902 
19:10	24.1	24.1	24.1	68	15.1	0	0	---	0.00	29.902 
19:15	24.1	24.1	24.1	68	15.1	0	0	---	0.00	29.896 
19:20	24.1	24.1	24.1	68	15.1	0	1	0	0.00	29.896 
19:25	24.1	24.1	24.1	69	15.4	0	0	---	0.00	29.896 
19:30	24.1	24.1	24.1	69	15.4	0	0	---	0.00	29.904 
19:35	24.2	24.2	24.2	69	15.5	0	0	---	0.00	29.904 
19:40	24.2	24.2	24.2	69	15.5	0	1	0	0.00	29.904 
19:45	24.2	24.2	24.2	69	15.5	0	1	0	0.00	29.904 
19:50	24.2	24.2	24.2	69	15.5	0	1	0	0.00	29.904 
19:55	24.2	24.2	24.2	69	15.5	0	1	0	0.00	29.904 
20:00	24.2	24.2	24.2	69	15.5	0	1	0	0.00	29.908 
20:05	24.4	24.4	24.4	69	15.7	0	1	0	0.00	29.908 
20:10	24.4	24.4	24.4	69	15.7	0	2	0	0.00	29.908 
20:15	24.4	24.4	24.4	69	15.7	0	1	248	0.00	29.917 
20:20	24.4	24.4	24.4	69	15.7	0	1	248	0.00	29.917 
20:25	24.4	24.4	24.4	69	15.7	0	1	248	0.00	29.917 
20:30	24.4	24.4	24.4	70	16.0	0	1	248	0.00	29.920 
20:35	24.4	24.4	24.4	70	16.0	0	1	248	0.00	29.920 
20:40	24.4	24.4	24.4	70	16.0	0	1	248	0.00	29.920 
20:45	24.4	24.4	24.4	71	16.4	0	2	248	0.00	29.921 
20:50	24.4	24.4	24.4	71	16.4	0	1	248	0.00	29.921 
20:55	24.4	24.4	24.4	71	16.4	0	1	248	0.00	29.921 
21:00	24.4	24.4	24.4	71	16.4	0	0	---	0.00	29.923 
21:05	24.4	24.4	24.4	71	16.4	0	1	248	0.00	29.923 
21:10	24.4	24.4	24.4	71	16.4	0	1	248	0.00	29.923 
21:15	24.5	24.5	24.5	70	16.1	0	1	248	0.00	29.929 
21:20	24.5	24.5	24.5	70	16.1	0	1	248	0.00	29.929 
21:25	24.5	24.5	24.5	70	16.1	0	1	248	0.00	29.929 
21:30	24.5	24.5	24.5	70	16.1	0	1	248	0.00	29.934 
21:35	24.5	24.5	24.5	71	16.5	0	2	248	0.00	29.934 
21:40	24.5	24.5	24.5	71	16.5	0	3	248	0.00	29.934 
21:45	24.5	24.5	24.5	72	16.8	0	1	248	0.00	29.939 
21:50	24.4	24.4	24.4	72	16.7	0	2	248	0.00	29.939 
21:55	24.4	24.4	24.4	72	16.7	0	1	248	0.00	29.939 
22:00	24.4	24.4	24.4	72	16.7	0	1	248	0.00	29.946 
22:05	24.4	24.4	24.4	72	16.7	0	1	248	0.00	29.946 
22:10	24.4	24.4	24.4	72	16.7	0	1	248	0.00	29.946 
22:15	24.4	24.4	24.4	73	17.0	0	1	248	0.00	29.947 
22:20	24.4	24.4	24.4	73	17.0	0	1	248	0.00	29.947 
22:25	24.4	24.4	24.4	73	17.0	0	1	248	0.00	29.947 
22:30	24.4	24.4	24.4	73	17.0	0	0	---	0.00	29.949 
22:35	24.4	24.4	24.4	73	17.0	0	0	---	0.00	29.949 
22:40	24.4	24.4	24.4	74	17.3	0	0	---	0.00	29.949 
22:45	24.5	24.5	24.5	74	17.4	0	1	248	0.00	29.955 
22:50	24.5	24.5	24.5	74	17.4	0	1	248	0.00	29.955 
22:55	24.5	24.5	24.5	74	17.4	0	0	---	0.00	29.955 
23:00	24.5	24.5	24.5	74	17.4	0	1	248	0.00	29.959 
23:05	24.5	24.5	24.5	74	17.4	0	1	248	0.00	29.959 
23:10	24.5	24.5	24.5	74	17.4	0	1	248	0.00	29.959 
23:15	24.5	24.5	24.5	74	17.4	0	1	248	0.00	29.961 
23:20	24.5	24.5	24.5	74	17.4	0	2	248	0.00	29.961 
23:25	24.5	24.5	24.5	75	17.7	0	1	248	0.00	29.961 
23:30	24.5	24.5	24.5	75	17.7	1	3	248	0.00	29.973 
23:35	24.5	24.5	24.5	75	17.7	0	2	248	0.00	29.973 
23:40	24.5	24.5	24.5	76	18.0	1	3	248	0.00	29.973 
23:45	24.4	24.4	24.4	76	17.9	1	3	248	0.00	29.975 
23:50	24.4	24.4	24.4	76	17.9	1	4	248	0.00	29.975 
23:55	24.4	24.4	24.4	76	17.9	2	4	248	0.00	29.975 

CoCoRaHS
IN-AL-39
A2 Web Hosting
Creative Commons License
GoDaddy
search engine by freefind advanced

loaded 2018-11-20 07:02:25 • last modified 2010-11-18 10:43:29
Privacy PolicyDisclaimer
• wx.awcolley.com is powered by PmWiki v.2002016 •
• all content (unless otherwise noted) © 2018 A W Colley